Time;durP1;ratioP1;P1;durP2;ratioP2;P2;SDS_P1;SDS_P2;PMS_P1;PMS_P2;Temp;Humidity;BMP_temperature;BMP_pressure;BME280_temperature;BME280_humidity;BME280_pressure;Samples;Min_cycle;Max_cycle;Signal;HPM_P1;HPM_P2
2022/03/25 00:01:10;;;;;;;7.10;4.90;;;21.80;43.30;;;;;;4953722;29;20032;-72
2022/03/25 00:03:36;;;;;;;6.45;4.78;;;21.80;43.40;;;;;;4953689;28;20039;-71
2022/03/25 00:06:01;;;;;;;8.60;4.68;;;21.80;43.40;;;;;;4953570;28;20031;-72
2022/03/25 00:08:27;;;;;;;6.47;4.18;;;21.80;43.40;;;;;;4953691;28;20473;-72
2022/03/25 00:10:53;;;;;;;6.47;4.47;;;21.80;43.50;;;;;;4952475;28;20042;-72
2022/03/25 00:13:19;;;;;;;7.03;4.70;;;21.80;43.50;;;;;;4953405;29;20232;-72
2022/03/25 00:15:44;;;;;;;5.93;4.43;;;21.80;43.50;;;;;;4953740;29;20495;-72
2022/03/25 00:18:10;;;;;;;6.65;4.70;;;21.80;43.50;;;;;;4953850;28;20031;-72
2022/03/25 00:20:36;;;;;;;7.65;4.75;;;21.80;43.40;;;;;;4952207;29;20035;-72
2022/03/25 00:23:02;;;;;;;7.43;5.03;;;21.80;43.40;;;;;;4953367;28;20028;-72
2022/03/25 00:25:29;;;;;;;7.13;4.65;;;21.80;43.50;;;;;;4953425;29;20058;-72
2022/03/25 00:27:55;;;;;;;5.75;4.28;;;21.80;43.50;;;;;;4953585;28;20020;-72
2022/03/25 00:30:21;;;;;;;8.32;4.53;;;21.80;43.50;;;;;;4952000;28;20042;-72
2022/03/25 00:32:47;;;;;;;6.72;4.80;;;21.80;43.50;;;;;;4953008;28;20027;-72
2022/03/25 00:35:13;;;;;;;6.80;4.70;;;21.80;43.50;;;;;;4952113;28;20078;-71
2022/03/25 00:37:39;;;;;;;6.28;4.47;;;21.80;43.50;;;;;;4951998;28;20413;-72
2022/03/25 00:40:06;;;;;;;7.43;4.38;;;21.80;43.50;;;;;;4953198;28;20035;-71
2022/03/25 00:42:31;;;;;;;7.05;4.57;;;21.80;43.60;;;;;;4953231;29;20024;-72
2022/03/25 00:44:58;;;;;;;6.78;4.63;;;21.80;43.50;;;;;;4952003;29;20034;-72
2022/03/25 00:47:23;;;;;;;6.43;4.38;;;21.80;43.40;;;;;;4952084;29;20050;-72
2022/03/25 00:49:52;;;;;;;7.85;4.70;;;21.80;43.40;;;;;;4951902;28;20480;-72
2022/03/25 00:52:18;;;;;;;7.25;4.55;;;21.80;43.40;;;;;;4951633;28;20399;-72
2022/03/25 00:54:44;;;;;;;6.35;4.60;;;21.80;43.30;;;;;;4952089;29;20038;-72
2022/03/25 00:57:10;;;;;;;8.10;4.63;;;21.80;43.40;;;;;;4951955;28;20035;-71
2022/03/25 00:59:36;;;;;;;7.10;4.70;;;21.80;43.40;;;;;;4952065;28;20027;-72
2022/03/25 01:02:03;;;;;;;5.82;4.20;;;21.80;43.40;;;;;;4951509;29;20086;-72
2022/03/25 01:04:29;;;;;;;6.93;4.80;;;21.80;43.40;;;;;;4951925;29;20381;-72
2022/03/25 01:06:55;;;;;;;6.25;4.63;;;21.80;43.50;;;;;;4951829;29;20031;-72
2022/03/25 01:09:21;;;;;;;6.85;4.90;;;21.80;43.50;;;;;;4951853;28;20498;-72
2022/03/25 01:11:48;;;;;;;8.35;5.03;;;21.70;43.40;;;;;;4935407;29;20435;-72
2022/03/25 01:14:14;;;;;;;6.13;4.13;;;21.80;43.50;;;;;;4951784;28;20515;-72
2022/03/25 01:16:40;;;;;;;7.07;4.20;;;21.80;43.50;;;;;;4952866;29;20035;-72
2022/03/25 01:19:05;;;;;;;6.65;4.43;;;21.80;43.50;;;;;;4951631;28;20098;-72
2022/03/25 01:21:31;;;;;;;7.22;4.65;;;21.80;43.40;;;;;;4952806;28;20027;-72
2022/03/25 01:23:57;;;;;;;7.03;4.40;;;21.70;43.30;;;;;;4951439;29;20054;-72
2022/03/25 01:26:24;;;;;;;7.85;4.50;;;21.80;43.50;;;;;;4951640;29;20397;-72
2022/03/25 01:28:52;;;;;;;6.68;4.70;;;21.70;43.40;;;;;;4951635;28;20019;-72
2022/03/25 01:31:19;;;;;;;6.72;4.35;;;21.80;43.50;;;;;;4952903;29;20042;-72
2022/03/25 01:33:44;;;;;;;6.97;4.40;;;21.70;43.50;;;;;;4952611;29;20105;-72
2022/03/25 01:36:10;;;;;;;7.32;4.90;;;21.80;43.50;;;;;;4952754;28;20575;-72
2022/03/25 01:38:36;;;;;;;7.65;4.75;;;21.70;43.40;;;;;;4952614;28;20403;-72
2022/03/25 01:41:03;;;;;;;7.70;4.70;;;21.70;43.40;;;;;;4951561;29;20424;-72
2022/03/25 01:43:29;;;;;;;5.63;4.35;;;21.70;43.40;;;;;;4953057;28;20034;-72
2022/03/25 01:45:55;;;;;;;6.00;4.10;;;21.70;43.40;;;;;;4955117;29;20556;-72
2022/03/25 01:48:22;;;;;;;6.65;4.57;;;21.70;43.40;;;;;;4956062;28;20027;-72
2022/03/25 01:50:49;;;;;;;6.85;4.57;;;21.70;43.30;;;;;;4956160;28;20027;-72
2022/03/25 01:53:17;;;;;;;7.55;5.03;;;21.70;43.30;;;;;;4955826;29;20488;-72
2022/03/25 01:55:51;;;;;;;6.47;4.40;;;21.80;43.40;;;;;;4954969;29;20090;-71
2022/03/25 01:58:18;;;;;;;6.65;4.47;;;21.80;43.40;;;;;;4954953;28;20440;-72
2022/03/25 02:00:44;;;;;;;7.10;4.93;;;21.80;43.40;;;;;;4954861;28;20043;-72
2022/03/25 02:03:10;;;;;;;7.30;4.80;;;21.80;43.10;;;;;;4955999;28;20030;-72
2022/03/25 02:05:36;;;;;;;6.68;4.88;;;21.80;43.20;;;;;;4954729;29;20042;-72
2022/03/25 02:08:03;;;;;;;6.35;4.28;;;21.80;43.40;;;;;;4954579;28;20027;-72
2022/03/25 02:10:29;;;;;;;7.68;4.68;;;21.70;43.40;;;;;;4956096;29;20027;-72
2022/03/25 02:12:56;;;;;;;7.47;4.63;;;21.70;43.30;;;;;;4938746;29;20028;-71
2022/03/25 02:15:36;;;;;;;6.90;4.70;;;21.70;43.30;;;;;;4954698;29;20024;-72
2022/03/25 02:18:14;;;;;;;6.45;4.40;;;21.70;43.40;;;;;;4954580;28;20032;-72
2022/03/25 02:20:42;;;;;;;7.22;4.50;;;21.70;43.40;;;;;;4954575;29;20525;-71
2022/03/25 02:23:10;;;;;;;6.72;4.80;;;21.70;43.40;;;;;;4954120;28;20399;-72
2022/03/25 02:25:38;;;;;;;7.10;4.90;;;21.70;43.30;;;;;;4954482;28;20082;-71
2022/03/25 02:28:05;;;;;;;6.55;4.55;;;21.70;43.40;;;;;;4954290;28;20035;-72
2022/03/25 02:30:39;;;;;;;7.30;4.95;;;21.70;43.40;;;;;;4938680;29;20027;-71
2022/03/25 02:33:14;;;;;;;8.30;5.05;;;21.70;43.30;;;;;;4938075;29;20064;-72
2022/03/25 02:35:48;;;;;;;6.70;4.75;;;21.70;43.20;;;;;;4954266;29;20551;-72
2022/03/25 02:38:16;;;;;;;7.85;4.70;;;21.70;43.40;;;;;;4955243;28;20027;-72
2022/03/25 02:40:42;;;;;;;6.22;4.53;;;21.70;43.30;;;;;;4922535;29;20031;-72
2022/03/25 02:43:11;;;;;;;7.20;4.53;;;21.70;43.30;;;;;;4937896;29;20388;-72
2022/03/25 02:45:41;;;;;;;6.85;4.53;;;21.70;43.40;;;;;;4954150;29;20023;-72
2022/03/25 02:48:09;;;;;;;8.18;5.20;;;21.70;43.30;;;;;;4953938;28;20027;-72
2022/03/25 02:50:35;;;;;;;7.40;4.70;;;21.70;43.30;;;;;;4938016;29;20027;-72
2022/03/25 02:53:02;;;;;;;7.45;4.95;;;21.70;43.30;;;;;;4953529;28;20395;-72
2022/03/25 02:55:28;;;;;;;5.72;4.15;;;21.70;43.30;;;;;;4955063;28;20030;-72
2022/03/25 02:57:55;;;;;;;6.95;4.53;;;21.70;43.30;;;;;;4954884;28;20440;-72
2022/03/25 03:00:23;;;;;;;7.38;4.80;;;21.70;43.30;;;;;;4954209;28;20031;-72
2022/03/25 03:02:49;;;;;;;6.93;4.65;;;21.70;43.20;;;;;;4954435;28;20114;-72
2022/03/25 03:05:17;;;;;;;6.55;4.60;;;21.70;43.10;;;;;;4954824;29;20107;-72
2022/03/25 03:07:45;;;;;;;7.22;4.63;;;21.70;43.80;;;;;;4954830;28;20510;-72
2022/03/25 03:10:11;;;;;;;7.63;4.63;;;21.70;43.20;;;;;;4954766;29;20442;-72
2022/03/25 03:12:37;;;;;;;7.40;4.82;;;21.80;43.20;;;;;;4954543;29;20058;-71
2022/03/25 03:15:04;;;;;;;7.82;4.60;;;21.70;43.10;;;;;;4954706;29;20084;-72
2022/03/25 03:17:30;;;;;;;6.60;4.35;;;21.70;43.10;;;;;;4953374;28;20126;-72
2022/03/25 03:19:56;;;;;;;6.75;5.20;;;21.70;43.20;;;;;;4954399;28;20114;-71
2022/03/25 03:22:22;;;;;;;7.70;4.65;;;21.70;43.10;;;;;;4952994;29;20035;-72
2022/03/25 03:24:48;;;;;;;7.57;4.90;;;21.70;43.20;;;;;;4954492;29;20502;-72
2022/03/25 03:27:14;;;;;;;6.85;4.75;;;21.70;43.20;;;;;;4953285;29;20484;-71
2022/03/25 03:29:41;;;;;;;7.03;4.75;;;21.70;43.30;;;;;;4954186;28;20030;-72
2022/03/25 03:32:07;;;;;;;6.72;4.85;;;21.70;43.20;;;;;;4954365;29;20059;-72
2022/03/25 03:34:33;;;;;;;7.13;4.65;;;21.70;43.20;;;;;;4954210;29;20484;-71
2022/03/25 03:36:59;;;;;;;7.97;4.75;;;21.70;43.30;;;;;;4954465;29;20074;-71
2022/03/25 03:39:25;;;;;;;8.18;5.00;;;21.70;43.20;;;;;;4954309;28;20039;-71
2022/03/25 03:41:50;;;;;;;7.13;4.70;;;21.70;43.20;;;;;;4953902;28;20130;-71
2022/03/25 03:44:16;;;;;;;5.80;4.22;;;21.70;43.30;;;;;;4954036;28;20082;-71
2022/03/25 03:46:42;;;;;;;6.95;4.82;;;21.70;43.20;;;;;;4954242;29;20408;-71
2022/03/25 03:49:07;;;;;;;6.88;5.10;;;21.70;43.20;;;;;;4952548;28;20102;-71
2022/03/25 03:51:33;;;;;;;7.18;4.88;;;21.70;43.20;;;;;;4954088;28;20027;-71
2022/03/25 03:54:00;;;;;;;8.98;5.30;;;21.70;43.20;;;;;;4953784;29;20125;-71
2022/03/25 03:56:26;;;;;;;6.55;4.80;;;21.70;43.20;;;;;;4952894;28;20024;-71
2022/03/25 03:58:52;;;;;;;7.22;4.75;;;21.70;43.20;;;;;;4954016;28;20031;-71
2022/03/25 04:01:18;;;;;;;7.03;4.72;;;21.70;43.30;;;;;;4952515;29;20042;-71
2022/03/25 04:03:43;;;;;;;7.68;4.95;;;21.70;43.30;;;;;;4953470;28;20027;-71
2022/03/25 04:06:09;;;;;;;6.95;4.45;;;21.70;43.20;;;;;;4953522;28;20050;-71
2022/03/25 04:08:35;;;;;;;7.75;4.57;;;21.70;43.20;;;;;;4952447;28;20373;-71
2022/03/25 04:11:03;;;;;;;7.10;5.20;;;21.70;43.20;;;;;;4953906;29;20055;-71
2022/03/25 04:13:29;;;;;;;6.93;4.90;;;21.70;43.10;;;;;;4953404;29;20027;-71
2022/03/25 04:15:54;;;;;;;7.97;5.10;;;21.70;43.20;;;;;;4953897;28;20031;-71
2022/03/25 04:18:21;;;;;;;8.05;5.07;;;21.70;43.20;;;;;;4953347;28;20061;-71
2022/03/25 04:20:47;;;;;;;9.02;4.97;;;21.70;43.20;;;;;;4952313;29;20078;-71
2022/03/25 04:23:13;;;;;;;7.05;4.90;;;21.70;43.10;;;;;;4953136;28;20148;-71
2022/03/25 04:25:38;;;;;;;6.88;4.90;;;21.70;43.10;;;;;;4953528;29;20035;-71
2022/03/25 04:28:04;;;;;;;7.03;4.97;;;21.70;43.10;;;;;;4953284;28;20020;-71
2022/03/25 04:30:32;;;;;;;6.65;4.90;;;21.70;43.10;;;;;;4952271;29;20035;-71
2022/03/25 04:32:59;;;;;;;6.65;4.57;;;21.70;43.20;;;;;;4951903;28;20118;-71
2022/03/25 04:35:25;;;;;;;7.28;4.68;;;21.70;43.10;;;;;;4953346;28;20020;-72
2022/03/25 04:37:52;;;;;;;7.55;5.30;;;21.70;43.20;;;;;;4953115;28;20069;-71
2022/03/25 04:40:20;;;;;;;6.88;4.80;;;21.70;43.20;;;;;;4953429;28;20131;-71
2022/03/25 04:42:51;;;;;;;6.53;4.60;;;21.70;43.20;;;;;;4953004;29;20131;-71
2022/03/25 04:45:17;;;;;;;7.22;4.95;;;21.70;43.20;;;;;;4953162;29;20058;-71
2022/03/25 04:47:44;;;;;;;8.23;5.20;;;21.70;43.20;;;;;;4951940;28;20118;-71
2022/03/25 04:50:11;;;;;;;6.30;4.53;;;21.70;43.10;;;;;;4953230;28;20403;-71
2022/03/25 04:52:37;;;;;;;7.43;4.60;;;21.70;43.20;;;;;;4952776;28;20126;-71
2022/03/25 04:55:03;;;;;;;6.60;4.72;;;21.70;43.20;;;;;;4953301;29;20038;-71
2022/03/25 04:57:29;;;;;;;8.00;5.20;;;21.70;43.20;;;;;;4951871;29;20032;-71
2022/03/25 04:59:55;;;;;;;8.10;5.05;;;21.70;43.10;;;;;;4953045;28;20031;-71
2022/03/25 05:02:22;;;;;;;8.13;5.00;;;21.70;43.20;;;;;;4951387;28;20037;-71
2022/03/25 05:04:47;;;;;;;7.32;4.57;;;21.70;43.10;;;;;;4951821;28;20373;-72
2022/03/25 05:07:17;;;;;;;7.97;4.97;;;21.70;43.20;;;;;;4953069;28;20023;-72
2022/03/25 05:09:44;;;;;;;7.25;4.88;;;21.70;43.20;;;;;;4951761;28;20024;-72
2022/03/25 05:12:10;;;;;;;6.85;4.82;;;21.70;43.20;;;;;;4935769;29;20027;-72
2022/03/25 05:14:36;;;;;;;6.80;5.00;;;21.70;43.10;;;;;;4951652;29;20082;-72
2022/03/25 05:17:02;;;;;;;8.13;5.43;;;21.70;43.10;;;;;;4936301;29;20389;-72
2022/03/25 05:19:27;;;;;;;7.93;5.10;;;21.70;43.10;;;;;;4956111;28;20066;-72
2022/03/25 05:21:53;;;;;;;7.32;5.05;;;21.70;43.10;;;;;;4956453;29;20023;-72
2022/03/25 05:24:19;;;;;;;6.78;4.95;;;21.70;43.10;;;;;;4956374;29;20395;-72
2022/03/25 05:26:44;;;;;;;7.82;5.20;;;21.70;43.10;;;;;;4956739;28;20023;-72
2022/03/25 05:29:10;;;;;;;7.55;5.35;;;21.70;43.10;;;;;;4956341;28;20027;-72
2022/03/25 05:31:37;;;;;;;7.68;5.30;;;21.70;43.10;;;;;;4956610;28;20035;-73
2022/03/25 05:34:06;;;;;;;7.90;5.45;;;21.70;43.10;;;;;;4939269;29;20058;-72
2022/03/25 05:36:33;;;;;;;8.90;5.47;;;21.70;43.00;;;;;;4956731;28;20510;-72
2022/03/25 05:39:00;;;;;;;8.25;5.40;;;21.70;43.00;;;;;;4955054;28;20073;-72
2022/03/25 05:41:27;;;;;;;7.43;5.05;;;21.70;43.00;;;;;;4955147;29;20039;-72
2022/03/25 05:43:53;;;;;;;7.03;4.90;;;21.70;43.00;;;;;;4954723;29;20035;-72
2022/03/25 05:46:20;;;;;;;8.20;4.90;;;21.70;43.00;;;;;;4956343;28;20032;-72
2022/03/25 05:48:46;;;;;;;7.60;5.03;;;21.70;43.10;;;;;;4955015;28;20662;-72
2022/03/25 05:51:12;;;;;;;7.18;5.18;;;21.70;43.10;;;;;;4939386;29;20035;-72
2022/03/25 05:53:42;;;;;;;7.78;4.80;;;21.70;43.10;;;;;;4954836;29;20074;-72
2022/03/25 05:56:08;;;;;;;7.82;5.10;;;21.70;43.10;;;;;;4954944;29;20035;-72
2022/03/25 05:58:35;;;;;;;7.32;5.00;;;21.70;43.10;;;;;;4956266;28;20038;-72
2022/03/25 06:01:05;;;;;;;7.97;5.18;;;21.70;43.10;;;;;;4954806;29;20038;-72
2022/03/25 06:03:32;;;;;;;8.43;5.10;;;21.70;43.10;;;;;;4938512;29;20542;-72
2022/03/25 06:06:03;;;;;;;7.20;5.10;;;21.70;43.10;;;;;;4955920;29;20163;-71
2022/03/25 06:08:30;;;;;;;7.32;4.95;;;21.70;43.10;;;;;;4938914;29;20110;-71
2022/03/25 06:10:56;;;;;;;8.55;5.55;;;21.70;43.10;;;;;;4954985;28;20392;-71
2022/03/25 06:13:23;;;;;;;7.85;5.13;;;21.70;43.10;;;;;;4955475;29;20505;-72
2022/03/25 06:15:49;;;;;;;7.85;5.25;;;21.70;43.10;;;;;;4955936;29;20045;-71
2022/03/25 06:18:15;;;;;;;8.20;5.25;;;21.70;43.10;;;;;;4954636;28;20126;-71
2022/03/25 06:20:40;;;;;;;8.13;5.30;;;21.70;43.00;;;;;;4954615;28;20102;-71
2022/03/25 06:23:06;;;;;;;8.02;5.22;;;21.70;43.00;;;;;;4938428;29;20133;-71
2022/03/25 06:25:32;;;;;;;8.63;5.50;;;21.70;43.10;;;;;;4955627;29;20031;-71
2022/03/25 06:28:00;;;;;;;8.15;5.22;;;21.70;43.00;;;;;;4955527;28;20122;-71
2022/03/25 06:30:31;;;;;;;7.72;5.18;;;21.70;43.10;;;;;;4954050;28;20047;-72
2022/03/25 06:32:57;;;;;;;9.70;5.50;;;21.70;43.00;;;;;;4954121;29;20464;-72
2022/03/25 06:35:23;;;;;;;7.95;5.30;;;21.70;43.00;;;;;;4955324;28;20031;-72
2022/03/25 06:37:51;;;;;;;8.10;5.20;;;21.70;43.00;;;;;;4955108;28;20071;-71
2022/03/25 06:40:19;;;;;;;7.75;5.47;;;21.70;43.00;;;;;;4954285;29;20395;-71
2022/03/25 06:42:46;;;;;;;7.47;5.13;;;21.70;43.00;;;;;;4954007;29;20452;-72
2022/03/25 06:45:16;;;;;;;9.15;5.30;;;21.70;43.00;;;;;;4954164;29;20075;-71
2022/03/25 06:47:43;;;;;;;8.73;5.47;;;21.70;42.90;;;;;;4953981;28;20035;-72
2022/03/25 06:50:10;;;;;;;7.90;5.10;;;21.70;43.00;;;;;;4955140;29;20041;-72
2022/03/25 06:52:37;;;;;;;8.20;5.07;;;21.70;43.00;;;;;;4954606;28;20307;-71
2022/03/25 06:55:03;;;;;;;8.27;5.30;;;21.70;43.00;;;;;;4955206;28;20473;-71
2022/03/25 06:57:29;;;;;;;7.03;5.00;;;21.70;43.10;;;;;;4955042;28;20399;-72
2022/03/25 06:59:55;;;;;;;8.55;5.25;;;21.70;43.00;;;;;;4954894;28;20098;-72
2022/03/25 07:02:21;;;;;;;8.45;5.25;;;21.70;43.10;;;;;;4937292;29;20496;-72
2022/03/25 07:04:47;;;;;;;8.18;5.18;;;21.80;43.10;;;;;;4954783;29;20359;-72
2022/03/25 07:07:14;;;;;;;8.68;5.32;;;21.80;43.10;;;;;;4953946;29;20035;-72
2022/03/25 07:09:40;;;;;;;7.88;5.20;;;21.80;43.10;;;;;;4954739;28;20031;-72
2022/03/25 07:12:06;;;;;;;7.32;5.22;;;21.80;43.20;;;;;;4937465;29;20038;-72
2022/03/25 07:14:32;;;;;;;6.60;4.57;;;21.80;43.10;;;;;;4953454;29;20514;-73
2022/03/25 07:16:58;;;;;;;7.35;4.75;;;21.80;43.20;;;;;;4953419;28;20059;-72
2022/03/25 07:19:25;;;;;;;7.75;4.90;;;21.80;43.10;;;;;;4953152;28;20032;-72
2022/03/25 07:21:54;;;;;;;8.10;5.43;;;21.80;43.20;;;;;;4953392;29;20031;-73
2022/03/25 07:24:21;;;;;;;7.63;5.43;;;21.80;43.20;;;;;;4953329;28;20023;-73
2022/03/25 07:26:47;;;;;;;6.97;4.90;;;21.80;43.20;;;;;;4953213;28;20034;-72
2022/03/25 07:29:14;;;;;;;10.00;5.13;;;21.80;43.20;;;;;;4954306;28;20031;-72
2022/03/25 07:31:39;;;;;;;8.25;4.82;;;21.80;43.30;;;;;;4953023;28;20094;-72
2022/03/25 07:34:05;;;;;;;9.32;5.25;;;21.80;43.30;;;;;;4954114;28;20031;-72
2022/03/25 07:36:31;;;;;;;7.13;4.72;;;21.80;43.40;;;;;;4953116;28;20031;-72
2022/03/25 07:38:56;;;;;;;8.40;5.50;;;21.80;43.40;;;;;;4954293;28;20503;-72
2022/03/25 07:41:22;;;;;;;7.68;5.13;;;21.80;43.40;;;;;;4952103;28;20043;-72
2022/03/25 07:43:48;;;;;;;8.13;5.30;;;21.90;43.40;;;;;;4954130;28;20050;-72
2022/03/25 07:46:14;;;;;;;7.88;5.03;;;21.90;43.40;;;;;;4937337;29;20023;-72
2022/03/25 07:48:40;;;;;;;8.85;5.32;;;21.90;43.40;;;;;;4952651;28;20461;-72
2022/03/25 07:51:08;;;;;;;9.13;5.15;;;21.90;43.40;;;;;;4952877;29;20077;-72
2022/03/25 07:53:34;;;;;;;7.07;4.85;;;21.90;43.40;;;;;;4936779;29;20039;-72
2022/03/25 07:56:00;;;;;;;7.38;5.03;;;21.90;43.40;;;;;;4953994;28;20031;-72
2022/03/25 07:58:26;;;;;;;8.38;5.25;;;22.00;43.40;;;;;;4952782;28;20467;-72
2022/03/25 08:00:52;;;;;;;7.38;4.85;;;21.90;43.30;;;;;;4952835;29;20045;-72
2022/03/25 08:03:19;;;;;;;7.22;4.90;;;22.00;43.40;;;;;;4936504;29;20031;-72
2022/03/25 08:05:47;;;;;;;6.90;4.72;;;22.00;43.50;;;;;;4953928;28;20107;-72
2022/03/25 08:08:13;;;;;;;8.45;5.35;;;22.00;43.50;;;;;;4953729;28;20038;-72
2022/03/25 08:10:39;;;;;;;7.75;5.40;;;22.00;43.50;;;;;;4953693;28;20027;-72
2022/03/25 08:13:06;;;;;;;7.38;5.07;;;22.00;43.50;;;;;;4952376;29;20028;-72
2022/03/25 08:15:33;;;;;;;7.60;5.28;;;22.00;43.50;;;;;;4936552;29;20118;-72
2022/03/25 08:18:01;;;;;;;8.20;5.22;;;22.00;43.50;;;;;;4952699;28;20027;-72
2022/03/25 08:20:37;;;;;;;7.80;5.32;;;22.00;43.50;;;;;;4953708;29;20501;-72
2022/03/25 08:23:04;;;;;;;8.48;5.15;;;22.00;43.50;;;;;;4936117;29;20089;-72
2022/03/25 08:28:15;;;;;;;7.90;5.38;;;22.00;43.50;;;;;;4953696;28;20086;-72
2022/03/25 08:30:42;;;;;;;7.63;4.90;;;22.00;43.50;;;;;;4953345;28;20066;-73
2022/03/25 08:33:09;;;;;;;7.70;5.20;;;22.00;43.50;;;;;;4952015;29;20048;-72
2022/03/25 08:35:36;;;;;;;6.32;4.57;;;22.00;43.50;;;;;;4952047;29;20059;-72
2022/03/25 08:38:03;;;;;;;6.78;4.68;;;22.10;43.60;;;;;;4953219;28;20094;-72
2022/03/25 08:40:30;;;;;;;8.65;5.20;;;22.10;43.60;;;;;;4953230;29;20089;-73
2022/03/25 08:42:56;;;;;;;7.47;4.82;;;22.10;43.60;;;;;;4953146;29;20054;-72
2022/03/25 08:45:22;;;;;;;7.72;4.93;;;22.10;43.60;;;;;;4951955;28;20039;-72
2022/03/25 08:47:51;;;;;;;7.93;5.18;;;22.10;43.60;;;;;;4953399;28;20034;-72
2022/03/25 08:50:17;;;;;;;7.45;4.93;;;22.10;43.60;;;;;;4953226;29;20027;-72
2022/03/25 08:52:45;;;;;;;7.65;5.10;;;22.10;43.60;;;;;;4953047;29;20487;-73
2022/03/25 08:55:12;;;;;;;7.10;5.40;;;22.10;43.60;;;;;;4951838;29;20027;-72
2022/03/25 08:57:39;;;;;;;8.73;5.13;;;22.10;43.60;;;;;;4953112;28;20034;-71
2022/03/25 09:00:10;;;;;;;7.57;4.95;;;22.10;44.20;;;;;;4953099;28;20028;-72
2022/03/25 09:02:37;;;;;;;7.90;5.03;;;22.20;43.70;;;;;;4951557;29;20086;-72
2022/03/25 09:05:04;;;;;;;7.25;4.70;;;22.20;43.60;;;;;;4951953;29;20067;-72
2022/03/25 09:07:30;;;;;;;6.75;4.57;;;22.20;43.70;;;;;;4936212;29;20129;-72
2022/03/25 09:09:56;;;;;;;8.23;5.00;;;22.10;43.60;;;;;;4952029;28;20031;-72
2022/03/25 09:12:23;;;;;;;7.75;4.80;;;22.20;43.70;;;;;;4952842;28;20031;-73
2022/03/25 09:14:49;;;;;;;6.80;4.70;;;22.20;43.70;;;;;;4953116;29;20023;-72
2022/03/25 09:17:15;;;;;;;7.30;4.72;;;22.20;43.70;;;;;;4951820;29;20028;-72
2022/03/25 09:19:41;;;;;;;7.78;5.38;;;22.20;43.70;;;;;;4951917;28;20042;-72
2022/03/25 09:22:07;;;;;;;6.78;4.80;;;22.20;43.70;;;;;;4951378;29;20152;-73
2022/03/25 09:24:33;;;;;;;7.63;4.72;;;22.20;43.70;;;;;;4952814;29;20069;-72
2022/03/25 09:26:59;;;;;;;8.65;4.95;;;22.20;43.80;;;;;;4952920;29;20534;-73
2022/03/25 09:29:25;;;;;;;7.47;4.85;;;22.20;43.80;;;;;;4951870;28;20035;-72
2022/03/25 09:31:52;;;;;;;8.52;5.03;;;22.20;43.80;;;;;;4935956;29;20120;-72
2022/03/25 09:37:02;;;;;;;7.43;4.55;;;22.20;43.80;;;;;;4951668;29;20559;-72
2022/03/25 09:39:28;;;;;;;7.47;5.20;;;22.20;43.90;;;;;;4952702;28;20118;-72
2022/03/25 09:41:54;;;;;;;7.28;4.90;;;22.20;43.90;;;;;;4951456;29;20424;-72
2022/03/25 09:44:19;;;;;;;8.20;4.65;;;22.20;43.90;;;;;;4952798;28;20027;-73
2022/03/25 09:46:46;;;;;;;6.28;4.60;;;22.20;43.90;;;;;;4952766;29;20031;-72
2022/03/25 09:49:12;;;;;;;8.32;4.65;;;22.20;43.90;;;;;;4952681;28;20062;-73
2022/03/25 09:51:38;;;;;;;7.55;5.13;;;22.20;44.00;;;;;;4952570;29;20105;-72
2022/03/25 09:54:06;;;;;;;6.20;4.57;;;22.20;44.00;;;;;;4952465;29;20751;-72
2022/03/25 09:56:32;;;;;;;7.88;4.32;;;22.20;44.00;;;;;;4952797;28;20077;-72
2022/03/25 09:58:58;;;;;;;7.22;4.90;;;22.20;44.00;;;;;;4952611;28;20031;-72
2022/03/25 10:01:24;;;;;;;6.43;4.40;;;22.20;44.00;;;;;;4951541;29;20495;-72
2022/03/25 10:03:51;;;;;;;7.00;4.70;;;22.20;44.00;;;;;;4952981;28;20028;-72
2022/03/25 10:06:16;;;;;;;6.80;4.78;;;22.20;44.00;;;;;;4956218;29;20039;-72
2022/03/25 10:08:43;;;;;;;6.78;4.78;;;22.20;44.00;;;;;;4955964;28;20027;-72
2022/03/25 10:11:28;;;;;;;7.88;4.97;;;22.20;44.00;;;;;;4954620;29;20400;-72
2022/03/25 10:14:15;;;;;;;7.05;4.78;;;22.30;44.10;;;;;;4938886;29;20097;-72
2022/03/25 10:16:43;;;;;;;8.82;4.97;;;22.30;44.10;;;;;;4955675;29;20031;-72
2022/03/25 10:19:11;;;;;;;7.68;4.63;;;22.20;44.00;;;;;;4955744;28;20117;-72
2022/03/25 10:21:57;;;;;;;8.43;4.90;;;22.20;44.10;;;;;;4954341;28;20530;-72
2022/03/25 10:24:40;;;;;;;7.63;4.90;;;22.30;44.10;;;;;;4955785;29;20484;-72
2022/03/25 10:27:07;;;;;;;6.53;4.60;;;22.20;44.10;;;;;;4954682;29;20036;-72
2022/03/25 10:29:35;;;;;;;6.75;4.50;;;22.20;44.10;;;;;;4955466;28;20027;-72
2022/03/25 10:32:15;;;;;;;8.98;5.03;;;22.20;44.20;;;;;;4954558;28;20031;-72
2022/03/25 10:34:43;;;;;;;7.13;4.70;;;22.20;44.20;;;;;;4955655;29;20058;-72
2022/03/25 10:37:14;;;;;;;7.30;4.80;;;22.30;44.20;;;;;;4954380;29;20056;-72
2022/03/25 10:39:53;;;;;;;7.50;5.22;;;22.20;44.20;;;;;;4955276;28;20035;-72
2022/03/25 10:42:19;;;;;;;6.97;4.60;;;22.30;44.30;;;;;;4954991;29;20023;-73
2022/03/25 10:44:45;;;;;;;7.07;4.78;;;22.20;44.20;;;;;;4955340;28;20147;-73
2022/03/25 10:47:16;;;;;;;6.28;4.40;;;22.20;44.20;;;;;;4955158;28;20027;-72
2022/03/25 10:49:47;;;;;;;7.72;4.80;;;22.20;44.30;;;;;;4955616;28;20027;-72
2022/03/25 10:52:39;;;;;;;6.97;4.60;;;22.20;44.20;;;;;;4954883;29;20039;-72
2022/03/25 10:55:18;;;;;;;8.38;4.82;;;22.20;44.30;;;;;;4949701;28;20051;-72
2022/03/25 10:58:08;;;;;;;7.68;4.90;;;22.20;44.20;;;;;;4954985;28;20106;-72
2022/03/25 11:00:34;;;;;;;;;;;22.20;44.20;;;;;;4955649;28;20027;-72
2022/03/25 11:02:59;;;;;;;7.43;4.60;;;22.20;44.20;;;;;;4954776;28;19915;-72
2022/03/25 11:05:25;;;;;;;7.40;4.85;;;22.20;44.20;;;;;;4953834;28;20023;-72
2022/03/25 11:07:52;;;;;;;7.63;5.00;;;22.20;44.20;;;;;;4953437;28;20509;-72
2022/03/25 11:10:18;;;;;;;6.95;4.45;;;22.20;44.30;;;;;;4937962;29;20083;-72
2022/03/25 11:12:46;;;;;;;6.85;4.30;;;22.20;44.20;;;;;;4954522;29;20034;-72
2022/03/25 11:15:13;;;;;;;6.90;4.35;;;22.20;44.20;;;;;;4936824;29;20040;-73
2022/03/25 11:17:41;;;;;;;6.40;4.50;;;22.20;44.80;;;;;;4954544;28;20121;-72
2022/03/25 11:20:09;;;;;;;6.60;4.65;;;22.20;44.20;;;;;;4954662;29;20031;-72
2022/03/25 11:22:42;;;;;;;6.50;4.32;;;22.20;44.20;;;;;;4953047;28;20043;-72
2022/03/25 11:25:10;;;;;;;7.22;4.85;;;22.20;44.20;;;;;;4953628;29;20372;-72
2022/03/25 11:27:37;;;;;;;7.72;4.72;;;22.20;44.20;;;;;;4953416;28;20492;-73
2022/03/25 11:30:09;;;;;;;6.88;4.25;;;22.20;44.30;;;;;;4953687;28;20031;-73
2022/03/25 11:33:06;;;;;;;6.43;4.45;;;22.20;44.20;;;;;;4952766;28;20496;-72
2022/03/25 11:35:34;;;;;;;6.82;4.65;;;22.20;44.30;;;;;;4954417;29;20023;-71
2022/03/25 11:38:14;;;;;;;6.35;4.40;;;22.20;44.30;;;;;;4954210;28;20035;-72
2022/03/25 11:40:45;;;;;;;6.75;4.60;;;22.20;44.30;;;;;;4954588;28;20113;-71
2022/03/25 11:43:25;;;;;;;8.68;4.72;;;22.20;44.30;;;;;;4953872;29;20126;-71
2022/03/25 11:45:59;;;;;;;5.78;4.40;;;22.20;44.30;;;;;;4954302;29;20506;-71
2022/03/25 11:48:25;;;;;;;6.70;4.28;;;22.20;44.30;;;;;;4954095;28;20034;-71
2022/03/25 11:50:58;;;;;;;5.70;4.53;;;22.20;44.30;;;;;;4952749;29;20031;-71
2022/03/25 11:53:24;;;;;;;6.05;4.43;;;22.20;44.30;;;;;;4952675;29;20090;-72
2022/03/25 11:56:06;;;;;;;7.50;4.80;;;22.20;44.30;;;;;;4954130;28;20102;-71
2022/03/25 11:58:39;;;;;;;7.20;4.35;;;22.20;44.30;;;;;;4954225;28;20035;-71
2022/03/25 12:01:17;;;;;;;6.32;4.70;;;22.20;44.30;;;;;;4952785;29;20031;-71
2022/03/25 12:03:49;;;;;;;7.25;4.63;;;22.20;44.30;;;;;;4952543;29;20035;-71
2022/03/25 12:06:35;;;;;;;7.15;4.65;;;22.20;44.30;;;;;;4953961;28;20076;-71
2022/03/25 12:09:05;;;;;;;6.70;4.68;;;22.20;44.30;;;;;;4950596;28;20460;-71
2022/03/25 12:11:50;;;;;;;7.97;4.75;;;22.20;44.30;;;;;;4953666;29;20500;-71
2022/03/25 12:14:18;;;;;;;6.68;4.57;;;22.20;44.30;;;;;;4953779;29;20597;-71
2022/03/25 12:16:51;;;;;;;6.40;4.43;;;22.20;44.30;;;;;;4953526;28;20031;-71
2022/03/25 12:19:26;;;;;;;6.95;4.60;;;22.10;44.20;;;;;;4953538;28;20424;-72
2022/03/25 12:21:55;;;;;;;6.60;4.47;;;22.20;44.20;;;;;;4953360;29;20480;-72
2022/03/25 12:24:21;;;;;;;7.75;4.53;;;22.20;44.30;;;;;;4953665;28;20036;-71
2022/03/25 12:27:02;;;;;;;7.40;4.65;;;22.10;44.20;;;;;;4953245;28;20030;-71
2022/03/25 12:29:36;;;;;;;6.63;4.47;;;22.10;44.10;;;;;;4952288;28;20027;-71
2022/03/25 12:32:03;;;;;;;6.53;4.18;;;22.20;44.20;;;;;;4952950;29;20114;-71
2022/03/25 12:34:56;;;;;;;5.95;4.22;;;22.20;44.20;;;;;;4952180;29;20031;-72
2022/03/25 12:37:34;;;;;;;6.90;4.50;;;22.20;44.20;;;;;;4953268;29;20464;-72
2022/03/25 12:40:09;;;;;;;7.65;4.40;;;22.20;44.20;;;;;;4952219;28;20035;-71
2022/03/25 12:42:35;;;;;;;6.22;4.43;;;22.10;44.20;;;;;;4951520;28;20032;-71
2022/03/25 12:45:01;;;;;;;7.25;4.50;;;22.10;44.20;;;;;;4952110;28;20031;-71
2022/03/25 12:47:31;;;;;;;6.22;4.25;;;22.10;44.20;;;;;;4953225;29;20034;-71
2022/03/25 12:49:59;;;;;;;5.95;4.32;;;22.10;44.20;;;;;;4951993;28;20074;-70
2022/03/25 12:52:25;;;;;;;6.38;4.38;;;22.10;44.10;;;;;;4935861;29;20035;-71
2022/03/25 12:54:51;;;;;;;6.05;4.28;;;22.10;44.20;;;;;;4953259;28;20030;-70
2022/03/25 12:57:33;;;;;;;6.07;4.13;;;22.10;44.10;;;;;;4920501;29;20090;-70